Time;durP1;ratioP1;P1;durP2;ratioP2;P2;SDS_P1;SDS_P2;PMS_P1;PMS_P2;Temp;Humidity;BMP_temperature;BMP_pressure;BME280_temperature;BME280_humidity;BME280_pressure;Samples;Min_cycle;Max_cycle;Signal;HPM_P1;HPM_P2
2021/09/06 00:00:58;;;;;;;38.08;17.10;;;;;;;4.14;89.92;100445.99;1732408;81;21504;-63
2021/09/06 00:03:29;;;;;;;37.25;16.15;;;;;;;4.12;90.14;100443.53;1741154;82;20929;-64
2021/09/06 00:06:03;;;;;;;38.67;17.32;;;;;;;4.12;90.39;100449.50;1716302;81;21101;-64
2021/09/06 00:08:30;;;;;;;38.95;16.20;;;;;;;4.12;90.31;100449.50;1699551;83;20949;-63
2021/09/06 00:11:09;;;;;;;34.27;16.48;;;;;;;4.08;90.26;100446.46;1709432;82;20959;-63
2021/09/06 00:13:42;;;;;;;37.25;16.25;;;;;;;4.05;90.12;100446.96;1727305;82;20881;-64
2021/09/06 00:16:17;;;;;;;41.28;17.12;;;;;;;4.03;90.06;100448.31;1712986;83;21500;-64
2021/09/06 00:18:51;;;;;;;42.83;15.68;;;;;;;4.00;89.98;100448.81;1697079;83;20897;-64
2021/09/06 00:21:19;;;;;;;48.10;16.42;;;;;;;3.91;89.82;100449.24;1701088;83;20992;-64
2021/09/06 00:23:50;;;;;;;43.13;17.77;;;;;;;3.91;89.82;100449.24;1682492;83;21571;-64
2021/09/06 00:26:22;;;;;;;38.80;17.25;;;;;;;3.91;90.05;100449.78;1678519;83;21553;-64
2021/09/06 00:29:00;;;;;;;37.15;15.78;;;;;;;3.87;90.14;100451.34;1693365;83;21074;-64
2021/09/06 00:31:32;;;;;;;44.55;15.85;;;;;;;3.86;90.26;100449.17;1674559;83;21168;-64
2021/09/06 00:34:02;;;;;;;39.35;15.95;;;;;;;3.85;90.37;100448.88;1686826;83;20949;-64
2021/09/06 00:36:35;;;;;;;36.30;16.87;;;;;;;3.85;90.45;100451.59;1697202;83;20985;-63
2021/09/06 00:39:06;;;;;;;35.48;14.95;;;;;;;3.82;90.36;100452.09;1707185;83;20937;-64
2021/09/06 00:41:42;;;;;;;33.55;14.93;;;;;;;3.82;90.45;100456.70;1705521;83;20965;-62
2021/09/06 00:44:10;;;;;;;34.13;15.38;;;;;;;3.78;90.40;100452.30;1698446;83;21155;-62
2021/09/06 00:46:45;;;;;;;35.52;14.98;;;;;;;3.74;90.29;100456.59;1676617;83;21013;-63
2021/09/06 00:49:12;;;;;;;38.10;15.50;;;;;;;3.74;90.29;100456.59;1708008;83;21552;-63
2021/09/06 00:51:49;;;;;;;42.90;17.05;;;;;;;3.72;90.13;100454.66;1696728;83;21242;-65
2021/09/06 00:54:15;;;;;;;37.42;15.03;;;;;;;3.65;90.25;100460.26;1684589;83;21433;-63
2021/09/06 00:56:46;;;;;;;32.45;14.03;;;;;;;3.65;90.25;100460.26;1669215;83;21428;-68
2021/09/06 00:59:23;;;;;;;39.63;15.70;;;;;;;3.60;89.98;100460.71;1690637;84;21084;-64
2021/09/06 01:01:55;;;;;;;35.83;14.85;;;;;;;3.60;89.98;100460.71;1704087;83;20929;-65
2021/09/06 01:04:24;;;;;;;38.25;14.83;;;;;;;3.55;90.06;100463.34;1672835;83;21466;-65
2021/09/06 01:07:07;;;;;;;38.95;15.25;;;;;;;3.51;90.10;100454.05;1666285;83;20909;-65
2021/09/06 01:09:42;;;;;;;34.48;15.58;;;;;;;3.49;90.27;100461.61;1644653;84;20939;-65
2021/09/06 01:12:18;;;;;;;36.53;15.25;;;;;;;3.46;90.46;100452.11;1692962;83;21438;-64
2021/09/06 01:14:55;;;;;;;34.65;14.80;;;;;;;3.43;90.51;100454.49;1689608;83;21624;-65
2021/09/06 01:17:25;;;;;;;32.58;14.85;;;;;;;3.41;90.68;100460.70;1659141;84;20916;-65
2021/09/06 01:19:58;;;;;;;34.90;15.13;;;;;;;3.34;90.53;100463.58;1702453;83;21181;-65
2021/09/06 01:22:30;;;;;;;38.53;14.98;;;;;;;3.34;90.53;100463.58;1694831;83;21194;-64
2021/09/06 01:25:20;;;;;;;34.65;14.98;;;;;;;3.29;90.73;100462.95;1677530;84;20990;-65
2021/09/06 01:27:52;;;;;;;36.30;16.42;;;;;;;3.25;90.89;100469.11;1685004;83;20933;-64
2021/09/06 01:30:24;;;;;;;;;;;;;;;3.22;90.97;100469.60;1718129;83;20989;-64
2021/09/06 01:32:51;;;;;;;35.10;14.90;;;;;;;3.18;90.98;100466.55;1690426;83;20195;-64
2021/09/06 01:35:24;;;;;;;32.85;14.70;;;;;;;3.17;91.27;100474.41;1696801;83;21488;-64
2021/09/06 01:37:55;;;;;;;37.48;15.68;;;;;;;3.17;91.53;100473.05;1711497;83;21461;-64
2021/09/06 01:40:25;;;;;;;31.65;14.07;;;;;;;3.12;91.58;100466.17;1668006;83;20948;-64
2021/09/06 01:42:54;;;;;;;30.40;14.07;;;;;;;3.12;91.58;100466.17;1702873;83;21029;-65
2021/09/06 01:45:27;;;;;;;32.60;14.03;;;;;;;3.11;91.85;100465.06;1708804;83;20926;-65
2021/09/06 01:48:00;;;;;;;31.12;13.50;;;;;;;3.13;91.88;100469.71;1694022;83;20941;-65
2021/09/06 01:50:32;;;;;;;29.45;12.63;;;;;;;3.10;91.76;100469.67;1683900;83;21524;-65
2021/09/06 01:53:05;;;;;;;29.82;12.47;;;;;;;3.07;91.73;100464.73;1699569;83;21065;-65
2021/09/06 01:55:43;;;;;;;29.27;13.20;;;;;;;3.05;91.68;100464.69;1700306;83;20990;-64
2021/09/06 01:58:14;;;;;;;29.05;13.28;;;;;;;3.01;91.66;100467.06;1692324;83;21516;-64
2021/09/06 02:00:41;;;;;;;27.00;12.53;;;;;;;2.99;91.63;100469.19;1699716;83;21553;-64
2021/09/06 02:03:16;;;;;;;38.75;13.93;;;;;;;2.94;91.73;100464.49;1698679;83;21000;-64
2021/09/06 02:05:57;;;;;;;30.05;12.28;;;;;;;2.94;91.96;100467.20;1710836;83;21008;-64
2021/09/06 02:08:27;;;;;;;;;;;;;;;2.94;91.98;100465.03;1677567;82;21058;-64
2021/09/06 02:11:00;;;;;;;32.40;12.43;;;;;;;2.95;91.99;100468.03;1659599;84;20120;-64
2021/09/06 02:13:31;;;;;;;35.80;14.25;;;;;;;2.92;91.88;100466.63;1713885;83;21189;-66
2021/09/06 02:16:05;;;;;;;29.65;12.73;;;;;;;2.91;91.96;100463.63;1702428;82;20988;-65
2021/09/06 02:18:36;;;;;;;25.45;11.93;;;;;;;2.90;91.95;100469.30;1716375;81;21027;-65
2021/09/06 02:21:08;;;;;;;33.13;12.30;;;;;;;2.88;92.05;100476.88;1651175;84;21004;-63
2021/09/06 02:23:40;;;;;;;32.07;13.37;;;;;;;2.86;91.88;100483.08;1716084;83;21013;-65
2021/09/06 02:26:12;;;;;;;27.35;11.88;;;;;;;2.83;92.11;100481.67;1675100;83;21232;-64
2021/09/06 02:28:48;;;;;;;30.77;11.55;;;;;;;2.82;92.04;100483.27;1663116;83;20967;-63
2021/09/06 02:31:24;;;;;;;23.07;11.33;;;;;;;2.81;92.18;100484.33;1673943;84;20975;-63
2021/09/06 02:33:55;;;;;;;28.27;11.08;;;;;;;2.80;92.31;100485.40;1688964;83;20905;-63
2021/09/06 02:36:31;;;;;;;23.45;11.57;;;;;;;2.80;92.47;100485.40;1707245;83;20986;-63
2021/09/06 02:39:00;;;;;;;22.37;10.28;;;;;;;2.79;92.54;100483.22;1683628;83;21162;-63
2021/09/06 02:41:30;;;;;;;23.45;11.12;;;;;;;2.80;92.59;100483.52;1700875;83;21763;-63
2021/09/06 02:44:04;;;;;;;26.23;10.55;;;;;;;2.79;92.50;100485.11;1705845;83;20940;-64
2021/09/06 02:46:35;;;;;;;23.10;10.98;;;;;;;2.79;92.47;100490.53;1709786;83;21019;-62
2021/09/06 02:49:04;;;;;;;28.38;11.22;;;;;;;2.80;92.84;100496.25;1698005;83;20953;-63
2021/09/06 02:51:40;;;;;;;24.65;12.18;;;;;;;2.80;92.84;100496.25;1678203;84;20895;-62
2021/09/06 02:54:06;;;;;;;33.48;12.20;;;;;;;2.80;92.93;100490.82;1700540;83;21500;-62
2021/09/06 02:56:42;;;;;;;27.25;10.58;;;;;;;2.81;93.01;100491.11;1693903;83;21396;-62
2021/09/06 02:59:15;;;;;;;22.90;10.82;;;;;;;2.80;93.21;100487.58;1720024;83;21442;-64
2021/09/06 03:01:50;;;;;;;24.23;10.70;;;;;;;2.79;93.38;100494.06;1672083;83;21438;-64
2021/09/06 03:04:17;;;;;;;29.12;11.20;;;;;;;2.79;93.52;100492.71;1692273;83;21120;-63
2021/09/06 03:06:53;;;;;;;29.07;10.68;;;;;;;2.80;93.75;100494.89;1678186;83;20925;-64
2021/09/06 03:09:25;;;;;;;24.07;10.82;;;;;;;2.81;94.08;100489.75;1714602;80;21055;-63
2021/09/06 03:11:56;;;;;;;21.75;9.20;;;;;;;2.82;94.25;100493.58;1726394;82;21009;-63
2021/09/06 03:14:26;;;;;;;22.25;9.75;;;;;;;2.83;94.23;100494.41;1707119;83;20941;-63
2021/09/06 03:17:01;;;;;;;21.85;9.00;;;;;;;2.82;94.29;100496.83;1699157;83;21241;-64
2021/09/06 03:19:34;;;;;;;21.95;8.98;;;;;;;2.80;94.27;100498.42;1669400;83;21561;-63
2021/09/06 03:22:03;;;;;;;18.45;9.08;;;;;;;2.79;94.28;100500.02;1686565;83;20917;-63
2021/09/06 03:24:30;;;;;;;19.05;8.85;;;;;;;2.79;94.32;100506.80;1700274;83;21002;-65
2021/09/06 03:27:06;;;;;;;20.75;8.38;;;;;;;2.78;94.31;100510.05;1656548;84;21067;-65
2021/09/06 03:29:35;;;;;;;18.35;7.55;;;;;;;2.78;94.22;100510.05;1690690;83;21225;-64
2021/09/06 03:32:07;;;;;;;17.10;8.10;;;;;;;2.77;94.06;100504.86;1691235;83;21100;-65
2021/09/06 03:34:37;;;;;;;20.50;8.87;;;;;;;2.76;94.05;100514.06;1691251;83;21617;-63
2021/09/06 03:37:08;;;;;;;18.60;8.25;;;;;;;2.77;94.23;100515.70;1708567;83;20905;-63
2021/09/06 03:39:36;;;;;;;19.07;8.25;;;;;;;2.79;94.54;100512.22;1687080;83;20973;-63
2021/09/06 03:42:09;;;;;;;19.07;8.13;;;;;;;2.82;94.80;100519.88;1702838;83;21172;-62
2021/09/06 03:44:42;;;;;;;18.57;7.95;;;;;;;2.86;94.96;100514.27;1689684;83;21041;-63
2021/09/06 03:47:19;;;;;;;16.62;7.55;;;;;;;2.88;95.07;100517.56;1697149;83;21579;-65
2021/09/06 03:49:49;;;;;;;20.12;7.35;;;;;;;2.90;95.18;100522.17;1659887;83;20917;-64
2021/09/06 03:52:22;;;;;;;18.12;7.55;;;;;;;2.93;95.07;100525.77;1677100;83;20924;-64
2021/09/06 03:54:50;;;;;;;15.55;7.72;;;;;;;2.94;95.08;100521.98;1694400;83;20909;-64
2021/09/06 03:57:19;;;;;;;12.85;6.60;;;;;;;2.97;95.16;100531.82;1707368;80;21058;-64
2021/09/06 03:59:49;;;;;;;22.48;8.98;;;;;;;3.00;95.23;100525.09;1713128;81;20961;-64
2021/09/06 04:02:21;;;;;;;17.67;7.05;;;;;;;3.06;95.32;100525.48;1676608;83;21030;-64
2021/09/06 04:04:54;;;;;;;21.50;7.92;;;;;;;3.06;95.32;100525.48;1701222;83;20901;-64
2021/09/06 04:07:23;;;;;;;19.07;8.53;;;;;;;3.14;95.56;100531.05;1714276;83;21166;-64
2021/09/06 04:09:51;;;;;;;21.25;7.70;;;;;;;3.20;95.57;100532.26;1691471;83;21494;-64
2021/09/06 04:12:23;;;;;;;31.80;10.80;;;;;;;3.29;95.71;100534.87;1709382;80;21016;-64
2021/09/06 04:14:57;;;;;;;27.37;10.50;;;;;;;3.29;95.71;100534.87;1729290;80;20969;-63
2021/09/06 04:17:25;;;;;;;31.80;11.70;;;;;;;3.34;95.83;100540.92;1724408;81;20941;-63
2021/09/06 04:20:00;;;;;;;27.97;13.53;;;;;;;3.38;95.96;100537.19;1672361;83;20879;-62
2021/09/06 04:22:32;;;;;;;28.67;11.63;;;;;;;3.47;96.25;100540.59;1717584;83;20988;-64
2021/09/06 04:25:04;;;;;;;;;;;;;;;3.54;96.36;100546.69;1714231;83;21071;-64
2021/09/06 04:27:33;;;;;;;29.25;11.53;;;;;;;3.61;96.44;100542.45;1699393;83;20507;-63
2021/09/06 04:30:03;;;;;;;32.20;12.35;;;;;;;3.66;96.66;100549.33;1673674;84;20939;-62
2021/09/06 04:32:35;;;;;;;23.02;10.48;;;;;;;3.75;96.96;100551.94;1684881;83;21203;-64
2021/09/06 04:35:05;;;;;;;26.15;10.30;;;;;;;3.86;97.39;100556.47;1679431;83;21479;-65
2021/09/06 04:37:34;;;;;;;19.50;10.23;;;;;;;4.03;97.93;100551.56;1705397;83;20946;-63
2021/09/06 04:40:09;;;;;;;25.27;9.90;;;;;;;4.16;98.42;100557.45;1691048;83;21019;-63
2021/09/06 04:42:37;;;;;;;;;;;;;;;4.33;98.85;100557.43;1686042;83;20960;-65
2021/09/06 04:45:17;;;;;;;23.65;11.33;;;;;;;4.52;99.25;100557.97;1712612;82;20238;-62
2021/09/06 04:47:52;;;;;;;28.73;12.05;;;;;;;4.67;99.64;100558.69;1705875;82;20916;-63
2021/09/06 04:50:25;;;;;;;28.70;13.05;;;;;;;4.85;100.00;100559.73;1726237;82;20986;-63
2021/09/06 04:52:56;;;;;;;32.17;14.10;;;;;;;5.03;100.00;100562.13;1718743;82;21019;-63
2021/09/06 04:55:23;;;;;;;37.85;13.85;;;;;;;5.22;100.00;100558.51;1722561;82;21075;-62
2021/09/06 04:57:55;;;;;;;28.73;12.40;;;;;;;5.39;100.00;100552.97;1729713;82;21624;-63
2021/09/06 05:00:25;;;;;;;22.52;11.78;;;;;;;5.54;100.00;100555.30;1720814;82;20936;-63
2021/09/06 05:03:08;;;;;;;25.02;11.53;;;;;;;5.73;100.00;100558.48;1729725;83;21067;-62
2021/09/06 05:05:38;;;;;;;27.40;12.78;;;;;;;5.90;100.00;100559.72;1710209;82;20928;-63
2021/09/06 05:08:08;;;;;;;25.77;12.53;;;;;;;6.08;100.00;100562.58;1730699;81;21123;-62
2021/09/06 05:10:38;;;;;;;22.95;10.35;;;;;;;6.25;100.00;100567.34;1707784;82;22771;-62
2021/09/06 05:13:15;;;;;;;32.48;11.88;;;;;;;6.44;100.00;100563.63;1723755;81;21569;-64
2021/09/06 05:15:46;;;;;;;22.70;10.50;;;;;;;6.62;100.00;100558.55;1725743;80;20852;-62
2021/09/06 05:18:14;;;;;;;20.48;10.70;;;;;;;6.85;100.00;100567.39;1701283;82;20949;-62
2021/09/06 05:20:43;;;;;;;26.05;10.15;;;;;;;7.02;100.00;100563.06;1675767;83;21025;-62
2021/09/06 05:23:16;;;;;;;27.22;11.48;;;;;;;7.19;100.00;100561.77;1675413;83;21541;-62
2021/09/06 05:25:42;;;;;;;24.75;11.03;;;;;;;7.41;100.00;100560.19;1687170;83;21492;-63
2021/09/06 05:28:18;;;;;;;25.50;10.30;;;;;;;7.65;100.00;100565.11;1670240;83;20945;-63
2021/09/06 05:30:44;;;;;;;21.82;10.08;;;;;;;7.85;100.00;100563.77;1681902;83;20874;-64
2021/09/06 05:33:21;;;;;;;21.48;9.45;;;;;;;8.04;99.32;100562.13;1699468;83;21421;-64
2021/09/06 05:35:51;;;;;;;27.65;12.85;;;;;;;8.23;98.51;100568.66;1700963;83;21809;-64
2021/09/06 05:38:21;;;;;;;21.20;11.53;;;;;;;8.43;98.08;100565.10;1690853;83;20954;-64
2021/09/06 05:41:10;;;;;;;19.25;10.78;;;;;;;8.57;96.35;100567.53;1732260;81;21072;-64
2021/09/06 05:43:43;;;;;;;17.60;9.48;;;;;;;8.70;96.12;100563.91;1712653;82;20997;-64
2021/09/06 05:46:11;;;;;;;19.92;9.53;;;;;;;8.83;96.03;100569.63;1722622;82;21584;-65
2021/09/06 05:48:44;;;;;;;13.78;8.10;;;;;;;8.99;95.79;100575.86;1735696;81;20848;-64
2021/09/06 05:51:15;;;;;;;11.03;6.83;;;;;;;9.16;95.31;100574.15;1746643;81;20976;-64
2021/09/06 05:54:05;;;;;;;12.05;6.70;;;;;;;9.30;94.09;100575.69;1713222;82;21014;-64
2021/09/06 05:56:39;;;;;;;17.23;8.70;;;;;;;9.45;93.26;100580.55;1692190;83;20985;-64
2021/09/06 05:59:05;;;;;;;23.32;11.22;;;;;;;9.56;91.61;100580.75;1702574;83;20939;-64
2021/09/06 06:01:39;;;;;;;;;;;;;;;9.64;90.37;100579.33;1700266;83;20901;-65
2021/09/06 06:04:16;;;;;;;20.63;11.33;;;;;;;9.76;89.19;100579.80;1721102;81;20175;-65
2021/09/06 06:06:54;;;;;;;16.67;8.68;;;;;;;9.76;89.19;100579.80;1732752;82;21460;-79
2021/09/06 06:09:32;;;;;;;16.57;8.85;;;;;;;9.83;88.84;100583.01;1717392;82;21016;-71
2021/09/06 06:12:01;;;;;;;20.25;6.80;;;;;;;9.97;89.13;100587.30;1709146;82;20979;-71
2021/09/06 06:14:34;;;;;;;13.90;7.40;;;;;;;10.11;88.17;100587.46;1697481;82;20959;-76
2021/09/06 06:17:06;;;;;;;11.85;6.42;;;;;;;10.32;88.12;100584.02;1691954;82;20896;-73
2021/09/06 06:19:46;;;;;;;14.20;5.75;;;;;;;10.52;87.58;100586.53;1688203;83;21497;-69
2021/09/06 06:22:17;;;;;;;9.85;5.25;;;;;;;10.71;85.27;100585.25;1703115;83;21131;-66
2021/09/06 06:25:04;;;;;;;13.72;5.70;;;;;;;10.82;81.94;100584.84;1688553;83;21004;-70
2021/09/06 06:27:36;;;;;;;9.33;5.45;;;;;;;10.92;82.23;100585.28;1667010;83;21548;-69
2021/09/06 06:30:09;;;;;;;12.63;5.28;;;;;;;11.09;82.16;100582.03;1716172;83;21038;-69
2021/09/06 06:32:40;;;;;;;8.15;4.62;;;;;;;11.25;81.34;100585.66;1689225;83;21024;-69
2021/09/06 06:35:11;;;;;;;8.60;4.80;;;;;;;11.42;80.68;100585.73;1709417;83;20979;-67
2021/09/06 06:37:41;;;;;;;9.28;4.87;;;;;;;11.57;81.09;100584.92;1704725;83;20897;-68
2021/09/06 06:40:10;;;;;;;13.72;5.70;;;;;;;11.71;78.91;100588.31;1707872;83;21456;-68
2021/09/06 06:42:45;;;;;;;14.40;7.28;;;;;;;11.80;78.45;100588.75;1710857;83;21537;-69
2021/09/06 06:45:15;;;;;;;18.17;8.65;;;;;;;11.93;77.04;100587.17;1713184;83;20952;-69
2021/09/06 06:47:48;;;;;;;15.63;6.90;;;;;;;12.10;77.73;100591.58;1712700;83;20995;-69
2021/09/06 06:50:18;;;;;;;12.93;5.83;;;;;;;12.32;74.98;100594.22;1685843;83;21031;-68
2021/09/06 06:52:46;;;;;;;15.65;5.97;;;;;;;12.41;74.16;100589.66;1689014;83;20920;-72
2021/09/06 06:55:18;;;;;;;7.70;4.58;;;;;;;12.56;73.38;100592.95;1719238;82;21001;-69
2021/09/06 06:57:51;;;;;;;8.40;4.30;;;;;;;12.71;71.98;100589.66;1725045;82;21570;-69
2021/09/06 07:00:20;;;;;;;7.78;5.15;;;;;;;12.83;70.61;100590.77;1729885;82;21535;-68
2021/09/06 07:02:52;;;;;;;8.20;3.80;;;;;;;12.94;70.33;100590.56;1724832;82;20881;-69
2021/09/06 07:05:18;;;;;;;6.35;3.50;;;;;;;13.10;69.69;100591.33;1747953;81;21160;-70
2021/09/06 07:07:49;;;;;;;5.08;2.50;;;;;;;13.30;68.05;100594.23;1738530;81;20983;-69
2021/09/06 07:10:18;;;;;;;6.80;3.20;;;;;;;13.46;67.76;100596.09;1751130;81;21524;-70
2021/09/06 07:12:48;;;;;;;7.10;3.05;;;;;;;13.55;64.08;100599.76;1726937;81;21038;-72
2021/09/06 07:15:17;;;;;;;7.05;2.77;;;;;;;13.54;63.12;100603.08;1701071;82;20992;-72
2021/09/06 07:17:45;;;;;;;3.47;1.90;;;;;;;13.55;62.50;100608.03;1713084;81;21174;-71
2021/09/06 07:20:14;;;;;;;7.37;5.25;;;;;;;13.57;60.69;100609.11;1717470;81;21075;-71
2021/09/06 07:22:45;;;;;;;16.93;10.00;;;;;;;13.58;61.12;100606.03;1721483;81;21020;-69
2021/09/06 07:25:14;;;;;;;7.65;4.00;;;;;;;13.63;61.78;100605.92;1733758;80;21765;-70
2021/09/06 07:27:48;;;;;;;33.98;5.35;;;;;;;13.71;59.36;100602.99;1711827;81;21051;-71
2021/09/06 07:30:20;;;;;;;16.70;5.50;;;;;;;13.81;59.61;100606.90;1702469;82;22282;-70
2021/09/06 07:32:53;;;;;;;8.15;4.70;;;;;;;14.03;59.74;100607.46;1687565;82;21042;-70
2021/09/06 07:35:20;;;;;;;9.43;3.35;;;;;;;14.30;57.95;100605.96;1729878;81;21492;-69
2021/09/06 07:37:52;;;;;;;4.10;1.85;;;;;;;14.56;55.04;100610.84;1724099;81;20985;-69
2021/09/06 07:40:22;;;;;;;3.08;1.50;;;;;;;14.88;53.07;100606.37;1683524;83;21503;-68
2021/09/06 07:42:53;;;;;;;4.35;2.25;;;;;;;15.32;51.85;100601.21;1738058;81;20906;-69
2021/09/06 07:45:26;;;;;;;5.83;2.98;;;;;;;15.85;52.55;100594.05;1666284;84;21026;-67
2021/09/06 07:47:54;;;;;;;7.42;4.35;;;;;;;16.37;52.87;100596.75;1701363;84;21457;-68
2021/09/06 07:50:28;;;;;;;7.55;3.40;;;;;;;16.79;50.56;100601.12;1708409;83;20949;-69
2021/09/06 07:52:58;;;;;;;8.55;4.25;;;;;;;17.08;49.76;100602.56;1682676;83;21620;-67
2021/09/06 07:55:30;;;;;;;7.65;3.65;;;;;;;17.17;48.16;100605.30;1669012;84;21407;-70
2021/09/06 07:57:58;;;;;;;9.58;3.58;;;;;;;17.10;50.26;100606.39;1703519;82;21113;-68
2021/09/06 08:00:27;;;;;;;5.35;1.80;;;;;;;17.21;49.30;100603.48;1688873;82;20872;-67
2021/09/06 08:02:56;;;;;;;5.10;2.25;;;;;;;17.19;46.71;100607.73;1695728;82;21027;-67
2021/09/06 08:05:33;;;;;;;7.92;2.17;;;;;;;17.05;48.28;100598.25;1707160;82;20887;-67
2021/09/06 08:08:07;;;;;;;7.05;1.70;;;;;;;17.09;48.85;100600.03;1713611;82;22009;-68
2021/09/06 08:10:39;;;;;;;5.40;1.98;;;;;;;17.26;48.21;100597.73;1727679;82;21031;-69
2021/09/06 08:13:09;;;;;;;3.37;1.75;;;;;;;17.27;47.10;100597.16;1729742;81;21068;-71
2021/09/06 08:15:40;;;;;;;3.45;1.90;;;;;;;17.14;47.39;100604.58;1696183;82;27143;-68
2021/09/06 08:18:11;;;;;;;1.95;1.30;;;;;;;17.08;47.65;100605.34;1727538;81;20941;-67
2021/09/06 08:20:41;;;;;;;;;;;;;;;16.97;47.47;100596.33;1723189;81;21100;-68
2021/09/06 08:23:13;;;;;;;4.30;1.15;;;;;;;16.89;46.90;100596.60;1716854;82;20488;-67
2021/09/06 08:25:46;;;;;;;3.58;1.40;;;;;;;16.91;47.28;100598.47;1712465;81;21493;-68
2021/09/06 08:28:15;;;;;;;2.37;1.37;;;;;;;17.19;47.25;100592.48;1718149;82;22010;-70
2021/09/06 08:30:44;;;;;;;2.08;1.40;;;;;;;17.45;45.73;100589.76;1739870;81;20948;-68
2021/09/06 08:33:17;;;;;;;3.92;1.70;;;;;;;17.68;47.19;100586.13;1703458;82;21093;-68
2021/09/06 08:35:47;;;;;;;3.20;1.50;;;;;;;18.20;45.59;100589.02;1709079;81;21633;-68
2021/09/06 08:38:16;;;;;;;5.83;2.27;;;;;;;18.70;43.91;100590.21;1702470;82;20900;-67
2021/09/06 08:40:47;;;;;;;3.55;1.67;;;;;;;18.96;41.92;100587.13;1703529;82;21009;-68
2021/09/06 08:43:14;;;;;;;3.75;1.40;;;;;;;18.97;39.74;100581.79;1735804;82;21094;-68
2021/09/06 08:45:42;;;;;;;3.72;1.70;;;;;;;18.80;40.60;100589.19;1734556;81;21974;-71
2021/09/06 08:48:11;;;;;;;2.40;1.55;;;;;;;18.48;41.74;100589.44;1707807;82;21510;-68
2021/09/06 08:50:42;;;;;;;3.25;1.32;;;;;;;18.11;43.67;100586.31;1709988;83;21583;-67
2021/09/06 08:53:15;;;;;;;2.72;1.50;;;;;;;18.15;42.60;100578.34;1728074;82;21589;-71
2021/09/06 08:55:51;;;;;;;3.52;1.90;;;;;;;18.33;40.39;100581.77;1744865;81;20927;-70
2021/09/06 08:58:24;;;;;;;3.40;1.70;;;;;;;18.59;40.39;100572.31;1749712;82;21135;-69
2021/09/06 09:00:53;;;;;;;5.78;1.57;;;;;;;18.74;40.77;100573.06;1742746;82;21448;-69
2021/09/06 09:03:28;;;;;;;2.25;1.55;;;;;;;18.59;39.71;100580.08;1725470;80;20983;-66
2021/09/06 09:06:16;;;;;;;2.62;1.60;;;;;;;18.15;41.23;100570.59;1742434;81;21425;-69
2021/09/06 09:08:58;;;;;;;3.35;1.35;;;;;;;17.66;42.28;100570.95;1715381;82;21632;-72
2021/09/06 09:11:35;;;;;;;2.02;1.57;;;;;;;17.29;42.44;100568.50;1735389;81;21142;-69
2021/09/06 09:14:17;;;;;;;1.92;1.10;;;;;;;17.02;41.92;100575.34;1692121;81;21067;-71
2021/09/06 09:17:05;;;;;;;1.60;1.30;;;;;;;16.80;43.44;100580.57;1699225;82;21014;-72
2021/09/06 09:19:41;;;;;;;2.15;1.10;;;;;;;16.66;43.14;100577.23;1711666;80;20974;-70
2021/09/06 09:22:20;;;;;;;3.60;1.10;;;;;;;16.56;42.71;100582.52;1724609;81;21046;-68
2021/09/06 09:25:01;;;;;;;1.67;1.20;;;;;;;16.63;41.75;100576.47;1686866;82;21562;-68
2021/09/06 09:27:45;;;;;;;4.58;1.50;;;;;;;16.71;41.60;100583.98;1710418;80;20944;-72
2021/09/06 09:30:29;;;;;;;4.05;1.72;;;;;;;16.81;42.93;100577.47;1708818;82;20984;-71
2021/09/06 09:33:14;;;;;;;5.50;1.25;;;;;;;16.91;42.17;100577.67;1739000;81;21022;-71
2021/09/06 09:36:05;;;;;;;132.30;19.02;;;;;;;17.05;39.63;100581.61;1749610;81;20940;-71
2021/09/06 09:38:38;;;;;;;2.40;1.30;;;;;;;17.10;39.41;100582.23;1740714;81;20885;-70
2021/09/06 09:41:15;;;;;;;3.00;1.10;;;;;;;17.03;38.55;100576.39;1727950;82;20960;-71
2021/09/06 09:43:46;;;;;;;1.65;1.05;;;;;;;16.88;39.55;100578.34;1733282;82;20994;-67
2021/09/06 09:46:24;;;;;;;3.00;1.35;;;;;;;16.76;40.15;100576.27;1727189;81;20962;-67
2021/09/06 09:48:52;;;;;;;2.47;1.12;;;;;;;16.73;40.09;100577.53;1722454;81;20901;-67
2021/09/06 09:51:26;;;;;;;2.27;1.25;;;;;;;16.79;41.41;100583.10;1736881;81;21144;-67
2021/09/06 09:54:01;;;;;;;16.97;2.55;;;;;;;16.97;41.58;100576.34;1740599;81;20984;-68
2021/09/06 09:56:28;;;;;;;2.37;1.60;;;;;;;17.18;40.39;100575.59;1748134;81;20946;-68
2021/09/06 09:59:02;;;;;;;4.07;1.73;;;;;;;17.14;39.39;100575.44;1732070;81;21528;-67
2021/09/06 10:01:36;;;;;;;7.47;1.62;;;;;;;17.03;39.37;100575.58;1712212;82;20945;-67
2021/09/06 10:04:05;;;;;;;2.30;1.22;;;;;;;16.95;40.85;100574.47;1725706;82;21264;-66
2021/09/06 10:06:32;;;;;;;13.25;2.33;;;;;;;16.78;38.70;100572.58;1684429;82;21078;-67
2021/09/06 10:09:02;;;;;;;7.12;1.30;;;;;;;16.61;40.40;100571.83;1720107;81;21533;-70
2021/09/06 10:11:43;;;;;;;2.77;1.32;;;;;;;16.51;41.69;100575.20;1732437;82;20950;-67
2021/09/06 10:14:17;;;;;;;1.87;1.00;;;;;;;16.48;41.07;100573.66;1698355;82;22367;-67
2021/09/06 10:17:05;;;;;;;9.58;1.62;;;;;;;16.46;40.91;100578.15;1723781;82;21465;-67
2021/09/06 10:19:49;;;;;;;5.25;2.00;;;;;;;16.44;40.49;100581.82;1739249;81;20989;-67
2021/09/06 10:22:27;;;;;;;5.72;1.87;;;;;;;16.46;39.32;100579.53;1718342;81;21037;-68
2021/09/06 10:25:00;;;;;;;7.22;1.60;;;;;;;16.48;39.51;100581.41;1727332;81;21443;-68
2021/09/06 10:27:35;;;;;;;12.30;1.77;;;;;;;16.71;39.93;100585.36;1725769;81;21056;-68
2021/09/06 10:30:09;;;;;;;2.65;0.90;;;;;;;16.94;40.01;100578.39;1706870;83;21129;-68
2021/09/06 10:32:47;;;;;;;2.80;1.02;;;;;;;17.21;39.74;100573.53;1721454;82;20948;-67
2021/09/06 10:35:27;;;;;;;2.42;1.15;;;;;;;17.41;39.49;100567.98;1692313;81;21453;-67
2021/09/06 10:38:07;;;;;;;1.10;1.00;;;;;;;17.44;39.04;100573.44;1737844;81;21523;-68
2021/09/06 10:40:48;;;;;;;2.15;0.93;;;;;;;17.64;41.03;100576.00;1745829;81;20949;-66
2021/09/06 10:43:26;;;;;;;2.67;0.98;;;;;;;18.05;39.71;100569.63;1758732;81;21310;-66
2021/09/06 10:45:56;;;;;;;2.58;1.02;;;;;;;18.58;38.01;100571.50;1755505;81;21427;-67
2021/09/06 10:48:30;;;;;;;1.92;1.25;;;;;;;18.97;36.11;100570.08;1739150;81;20873;-67
2021/09/06 10:50:57;;;;;;;1.57;1.00;;;;;;;19.23;36.41;100572.48;1747463;81;21106;-68
2021/09/06 10:53:27;;;;;;;1.90;0.90;;;;;;;19.54;34.32;100566.33;1756509;81;21054;-70
2021/09/06 10:56:00;;;;;;;1.62;1.00;;;;;;;19.56;31.94;100561.22;1748821;81;21233;-68
2021/09/06 10:58:36;;;;;;;3.22;1.40;;;;;;;19.20;33.53;100562.05;1753007;80;21005;-67
2021/09/06 11:01:08;;;;;;;1.93;1.10;;;;;;;18.99;34.44;100562.20;1752601;80;21506;-67
2021/09/06 11:03:38;;;;;;;3.20;1.47;;;;;;;18.78;35.46;100568.44;1754228;81;20932;-67
2021/09/06 11:06:15;;;;;;;2.52;1.50;;;;;;;18.53;34.62;100565.34;1766375;81;21019;-67
2021/09/06 11:08:53;;;;;;;4.00;1.67;;;;;;;18.34;35.88;100569.50;1756672;81;20955;-67
2021/09/06 11:11:31;;;;;;;1.50;1.20;;;;;;;18.18;34.74;100568.52;1711808;82;20987;-67
2021/09/06 11:14:06;;;;;;;3.72;1.30;;;;;;;18.17;33.32;100559.94;1676067;83;20915;-67
2021/09/06 11:16:41;;;;;;;2.65;1.00;;;;;;;18.21;33.75;100567.02;1752474;80;21046;-67
2021/09/06 11:19:14;;;;;;;1.45;1.05;;;;;;;18.34;33.31;100563.94;1752344;81;21452;-67
2021/09/06 11:21:48;;;;;;;1.92;1.00;;;;;;;18.48;33.00;100563.02;1762578;81;21131;-67
2021/09/06 11:24:22;;;;;;;2.70;1.07;;;;;;;18.71;33.27;100566.23;1758898;80;21040;-67
2021/09/06 11:26:54;;;;;;;3.55;1.20;;;;;;;18.82;31.88;100565.78;1765053;80;20881;-67
2021/09/06 11:29:22;;;;;;;2.17;1.37;;;;;;;19.00;32.57;100558.25;1744368;81;20949;-67
2021/09/06 11:31:55;;;;;;;4.87;2.10;;;;;;;19.39;32.05;100547.53;1741115;81;21027;-66
2021/09/06 11:34:31;;;;;;;1.60;1.02;;;;;;;19.88;33.09;100550.19;1694976;82;20962;-68
2021/09/06 11:37:03;;;;;;;2.75;1.80;;;;;;;20.47;31.78;100549.45;1664386;83;20934;-67
2021/09/06 11:39:36;;;;;;;2.85;1.67;;;;;;;20.97;29.49;100535.58;1708821;82;20939;-65
2021/09/06 11:42:04;;;;;;;5.35;1.77;;;;;;;21.29;28.21;100536.95;1733860;81;21528;-66
2021/09/06 11:44:37;;;;;;;3.05;0.98;;;;;;;21.55;29.99;100532.13;1717480;82;20973;-66
2021/09/06 11:47:09;;;;;;;4.83;1.47;;;;;;;21.82;29.90;100535.90;1725324;81;21945;-67